Time;durP1;ratioP1;P1;durP2;ratioP2;P2;SDS_P1;SDS_P2;PMS_P1;PMS_P2;Temp;Humidity;BMP_temperature;BMP_pressure;BME280_temperature;BME280_humidity;BME280_pressure;Samples;Min_cycle;Max_cycle;Signal;HPM_P1;HPM_P2
2023/04/21 04:15:08;;;;;;;21.03;12.97;;;;;;;3.21;100.00;95068.53;6156336;23;20195;-87
2023/04/21 04:17:33;;;;;;;20.00;13.70;;;;;;;3.22;100.00;95062.47;6188072;23;20264;-86
2023/04/21 04:19:59;;;;;;;21.90;14.77;;;;;;;3.24;100.00;95067.47;6189282;23;20836;-86
2023/04/21 04:22:24;;;;;;;21.20;13.97;;;;;;;3.26;100.00;95060.47;6214098;23;20216;-86
2023/04/21 04:24:50;;;;;;;24.50;15.03;;;;;;;3.19;100.00;95067.00;6165039;23;20166;-86
2023/04/21 04:27:15;;;;;;;24.33;15.47;;;;;;;3.27;100.00;95069.78;6215514;23;20170;-83
2023/04/21 04:29:40;;;;;;;20.73;13.87;;;;;;;3.27;100.00;95078.34;6189970;23;20168;-84
2023/04/21 04:32:08;;;;;;;21.23;13.53;;;;;;;3.24;100.00;95072.59;6188054;23;20506;-81
2023/04/21 04:34:36;;;;;;;19.70;13.47;;;;;;;3.29;100.00;95070.53;6188060;23;20158;-82
2023/04/21 04:37:02;;;;;;;19.87;13.50;;;;;;;3.39;99.73;95063.75;6213827;23;20176;-85
2023/04/21 04:39:27;;;;;;;20.67;12.80;;;;;;;3.34;99.66;95068.41;6188656;23;20237;-82
2023/04/21 04:41:53;;;;;;;18.90;12.80;;;;;;;3.35;99.62;95073.41;6214717;23;20158;-83
2023/04/21 04:44:18;;;;;;;16.87;12.37;;;;;;;3.38;99.51;95062.94;6208387;23;20216;-80
2023/04/21 04:46:44;;;;;;;21.03;12.67;;;;;;;3.43;99.26;95057.44;6210789;23;20158;-83
2023/04/21 04:49:09;;;;;;;18.20;12.67;;;;;;;3.47;98.92;95068.31;6213297;23;20158;-83
2023/04/21 04:51:35;;;;;;;15.40;11.10;;;;;;;3.52;97.90;95071.34;6187388;23;20189;-82
2023/04/21 04:54:00;;;;;;;17.67;12.03;;;;;;;3.48;98.55;95072.50;6188080;23;20212;-82
2023/04/21 04:56:25;;;;;;;19.47;13.20;;;;;;;3.57;98.88;95075.19;6215507;23;20261;-82
2023/04/21 04:58:50;;;;;;;17.27;12.63;;;;;;;3.63;97.96;95092.72;6214774;23;20588;-78
2023/04/21 05:01:16;;;;;;;17.10;12.13;;;;;;;3.70;97.51;95091.28;6214526;23;20177;-82
2023/04/21 05:03:42;;;;;;;17.87;12.13;;;;;;;3.64;97.34;95081.50;6188461;23;20170;-81
2023/04/21 05:06:08;;;;;;;18.73;13.03;;;;;;;3.65;98.08;95085.72;6214816;23;20212;-83
2023/04/21 05:08:34;;;;;;;20.07;12.87;;;;;;;3.70;97.26;95080.19;6188275;23;20189;-82
2023/04/21 05:11:06;;;;;;;18.13;12.30;;;;;;;3.81;97.55;95093.06;6210632;23;20486;-84
2023/04/21 05:13:32;;;;;;;17.73;12.97;;;;;;;3.78;96.88;95100.16;6187240;23;20135;-83
2023/04/21 05:16:01;;;;;;;19.07;13.40;;;;;;;3.88;96.22;95099.34;6186582;23;20511;-82
2023/04/21 05:18:27;;;;;;;20.13;13.27;;;;;;;3.90;95.91;95100.06;6189478;23;20290;-83
2023/04/21 05:20:57;;;;;;;17.47;12.87;;;;;;;3.91;96.18;95098.31;6188873;23;20188;-83
2023/04/21 05:23:53;;;;;;;18.00;13.03;;;;;;;3.97;95.93;95108.09;6163671;23;20266;-83
2023/04/21 05:26:41;;;;;;;20.80;13.77;;;;;;;3.98;95.14;95114.88;6214841;23;20147;-83
2023/04/21 05:29:06;;;;;;;20.67;13.60;;;;;;;4.07;95.61;95113.38;6242560;23;20131;-81
2023/04/21 05:31:32;;;;;;;19.37;12.60;;;;;;;4.13;95.31;95118.00;6217077;23;20197;-80
2023/04/21 05:33:58;;;;;;;19.10;13.00;;;;;;;4.10;95.46;95126.78;6216521;23;20157;-80
2023/04/21 05:36:23;;;;;;;21.30;13.33;;;;;;;4.16;95.47;95126.31;6191279;22;20151;-80
2023/04/21 05:38:49;;;;;;;19.37;13.23;;;;;;;4.36;93.79;95123.94;6242259;22;20299;-81
2023/04/21 05:41:15;;;;;;;20.40;15.20;;;;;;;4.43;94.71;95135.38;6193016;22;20172;-79
2023/04/21 05:43:59;;;;;;;19.23;13.87;;;;;;;4.63;93.82;95134.63;6242619;22;20201;-80
2023/04/21 05:46:24;;;;;;;20.27;13.80;;;;;;;4.73;93.75;95127.81;6216865;23;20139;-80
2023/04/21 05:48:50;;;;;;;18.10;13.07;;;;;;;4.97;92.31;95130.19;6216513;23;20170;-80
2023/04/21 05:51:21;;;;;;;19.90;12.50;;;;;;;5.25;91.74;95133.91;6216930;23;20200;-80
2023/04/21 05:53:47;;;;;;;17.33;12.27;;;;;;;5.46;91.66;95145.94;6192929;23;20318;-81
2023/04/21 05:59:34;;;;;;;16.47;12.00;;;;;;;5.86;88.76;95146.06;6213925;23;20176;-84
2023/04/21 06:09:15;;;;;;;12.57;9.53;;;;;;;6.56;86.29;95141.84;6171577;23;20235;-81
2023/04/21 06:12:27;;;;;;;14.17;11.13;;;;;;;7.06;86.34;95147.72;6156038;23;20691;-80
2023/04/21 06:15:01;;;;;;;13.00;9.90;;;;;;;7.12;85.78;95154.09;6190005;23;20622;-82
2023/04/21 06:17:34;;;;;;;12.50;10.37;;;;;;;7.29;85.04;95137.94;6180405;23;20658;-83
2023/04/21 06:20:03;;;;;;;12.97;9.80;;;;;;;7.37;83.97;95138.06;6183868;23;20166;-82
2023/04/21 06:29:04;;;;;;;11.37;9.27;;;;;;;7.27;83.69;95139.84;6162401;23;20220;-81
2023/04/21 06:31:29;;;;;;;11.50;8.83;;;;;;;7.08;82.48;95138.91;6209458;23;20153;-83
2023/04/21 06:33:55;;;;;;;9.90;8.83;;;;;;;6.94;83.98;95135.91;6183102;23;20241;-82
2023/04/21 06:36:21;;;;;;;11.53;9.47;;;;;;;7.14;83.96;95132.34;6182603;23;20194;-83
2023/04/21 06:38:47;;;;;;;13.07;9.40;;;;;;;6.94;83.59;95134.13;6209203;23;20241;-83
2023/04/21 06:41:12;;;;;;;13.63;9.23;;;;;;;7.06;84.66;95132.22;6185434;23;20166;-82
2023/04/21 06:44:35;;;;;;;;;;;;;;;;;;;;;
2023/04/21 06:47:03;;;;;;;12.30;9.83;;;;;;;7.27;84.23;95132.09;6181563;23;20258;-81
2023/04/21 06:49:29;;;;;;;12.23;9.53;;;;;;;7.51;83.25;95131.63;6186187;23;20619;-84
2023/04/21 06:51:57;;;;;;;11.47;9.20;;;;;;;7.71;82.29;95135.81;6185126;23;20181;-84
2023/04/21 06:54:25;;;;;;;11.83;9.00;;;;;;;8.08;79.07;95132.44;6160320;23;20217;-84
2023/04/21 06:57:01;;;;;;;9.60;8.20;;;;;;;8.19;78.00;95143.41;6161606;23;20695;-84
2023/04/21 06:59:26;;;;;;;12.73;9.33;;;;;;;8.27;78.05;95136.72;6161067;23;20213;-83
2023/04/21 07:01:52;;;;;;;10.53;8.70;;;;;;;8.39;76.93;95131.25;6185541;23;20213;-83
2023/04/21 07:04:20;;;;;;;11.57;9.27;;;;;;;7.86;77.48;95125.84;6156931;23;20698;-84
2023/04/21 07:06:48;;;;;;;14.63;10.17;;;;;;;8.12;78.30;95119.06;6187391;23;20237;-83
2023/04/21 07:09:14;;;;;;;10.13;9.00;;;;;;;8.24;77.98;95119.72;6163425;23;20516;-85
2023/04/21 07:11:39;;;;;;;13.30;10.27;;;;;;;8.44;78.95;95113.50;6187604;23;20157;-85
2023/04/21 07:14:15;;;;;;;12.63;10.57;;;;;;;8.62;77.70;95118.69;6189242;23;20592;-82
2023/04/21 07:16:40;;;;;;;12.30;10.03;;;;;;;9.20;77.22;95125.25;6185829;23;20230;-84
2023/04/21 07:19:06;;;;;;;12.17;9.53;;;;;;;9.53;77.49;95123.69;6162196;23;20162;-83
2023/04/21 07:21:35;;;;;;;11.33;9.77;;;;;;;9.40;76.37;95131.06;6162563;23;20162;-85
2023/04/21 07:24:01;;;;;;;11.67;9.80;;;;;;;9.54;77.27;95126.16;6162536;23;20178;-84
2023/04/21 07:26:26;;;;;;;11.60;10.40;;;;;;;9.32;77.41;95124.03;6161920;23;20210;-84
2023/04/21 07:28:57;;;;;;;13.13;10.37;;;;;;;9.16;77.82;95123.91;6187110;23;20201;-83
2023/04/21 07:31:27;;;;;;;11.37;9.40;;;;;;;9.42;77.73;95123.94;6178119;23;20166;-84
2023/04/21 07:33:55;;;;;;;9.93;8.40;;;;;;;9.23;76.29;95133.53;6135829;23;20173;-85
2023/04/21 07:36:20;;;;;;;11.30;8.83;;;;;;;9.16;76.92;95131.66;6160866;23;20154;-83
2023/04/21 07:38:46;;;;;;;10.80;9.37;;;;;;;9.50;77.95;95122.22;6157874;23;20702;-84
2023/04/21 07:41:12;;;;;;;12.17;9.57;;;;;;;9.66;78.41;95121.53;6161854;23;20166;-85
2023/04/21 07:43:38;;;;;;;10.53;8.20;;;;;;;9.38;78.21;95125.22;6136727;23;20189;-85
2023/04/21 07:46:04;;;;;;;8.00;6.87;;;;;;;9.49;76.90;95127.56;6135991;23;20162;-85
2023/04/21 07:48:50;;;;;;;10.37;7.87;;;;;;;9.71;78.45;95127.06;6161824;23;20178;-85
2023/04/21 07:51:16;;;;;;;7.57;6.13;;;;;;;9.64;76.33;95123.47;6165512;23;20163;-85
2023/04/21 07:53:45;;;;;;;8.17;6.23;;;;;;;9.55;74.85;95124.38;6160709;23;20155;-85
2023/04/21 07:56:13;;;;;;;8.07;6.17;;;;;;;9.46;76.55;95125.28;6160235;23;20249;-85
2023/04/21 07:58:38;;;;;;;7.50;5.90;;;;;;;9.61;76.59;95116.78;6161460;23;20194;-84
2023/04/21 08:01:09;;;;;;;8.43;5.77;;;;;;;9.77;76.98;95118.69;6188141;23;20214;-84
2023/04/21 08:03:37;;;;;;;9.50;7.60;;;;;;;9.68;77.09;95119.59;6161928;23;20178;-85
2023/04/21 08:06:11;;;;;;;7.23;6.37;;;;;;;10.02;76.13;95122.22;6162518;23;20158;-83
2023/04/21 08:08:36;;;;;;;8.40;6.23;;;;;;;9.86;73.56;95122.94;6161029;23;20525;-83
2023/04/21 08:11:04;;;;;;;8.57;6.10;;;;;;;9.92;73.09;95124.13;6186338;23;20157;-84
2023/04/21 08:13:29;;;;;;;8.63;6.73;;;;;;;9.99;74.58;95122.56;6187427;23;20155;-83
2023/04/21 08:15:55;;;;;;;9.10;7.50;;;;;;;9.76;73.30;95106.69;6160899;23;20172;-84
2023/04/21 08:18:20;;;;;;;9.57;7.70;;;;;;;9.85;74.98;95116.13;6162136;23;20217;-84
2023/04/21 08:20:51;;;;;;;10.03;8.53;;;;;;;9.83;74.10;95115.47;6163191;23;20191;-82
2023/04/21 08:23:17;;;;;;;9.67;7.33;;;;;;;9.77;75.39;95116.09;6161422;23;20189;-87
2023/04/21 08:25:42;;;;;;;10.47;8.00;;;;;;;9.64;74.45;95113.09;6185614;23;20163;-86
2023/04/21 08:28:08;;;;;;;8.53;7.30;;;;;;;9.91;74.91;95112.13;6161079;23;20523;-84
2023/04/21 08:30:33;;;;;;;9.10;7.73;;;;;;;10.04;74.54;95112.50;6185748;23;20242;-85
2023/04/21 08:32:59;;;;;;;9.50;7.80;;;;;;;10.28;74.91;95111.84;6156012;23;20162;-84
2023/04/21 08:35:24;;;;;;;7.60;6.37;;;;;;;10.44;70.83;95108.50;6158426;23;20581;-85
2023/04/21 08:37:50;;;;;;;8.87;7.90;;;;;;;10.47;73.75;95114.19;6156812;23;20178;-85
2023/04/21 08:40:15;;;;;;;9.70;7.97;;;;;;;10.55;73.46;95113.41;6182125;23;20161;-84
2023/04/21 08:42:41;;;;;;;9.63;7.10;;;;;;;10.91;73.40;95113.97;6133555;23;20204;-86
2023/04/21 08:45:07;;;;;;;9.90;7.00;;;;;;;10.74;72.14;95117.50;6132528;23;20868;-85
2023/04/21 08:47:33;;;;;;;7.10;6.40;;;;;;;10.69;72.70;95109.34;6156814;23;20186;-87
2023/04/21 08:49:58;;;;;;;7.20;6.07;;;;;;;10.70;71.79;95106.63;6157488;23;20580;-82
2023/04/21 08:52:24;;;;;;;7.80;6.33;;;;;;;10.75;70.48;95104.34;6132771;23;20559;-83
2023/04/21 08:54:51;;;;;;;7.93;6.83;;;;;;;10.97;71.61;95108.13;6136349;23;20147;-85
2023/04/21 08:57:19;;;;;;;10.67;7.60;;;;;;;10.86;71.69;95107.59;6184420;23;20170;-84
2023/04/21 08:59:45;;;;;;;9.77;8.03;;;;;;;11.20;72.45;95102.28;6161001;23;20201;-85
2023/04/21 09:02:23;;;;;;;9.30;7.57;;;;;;;11.23;70.77;95097.59;6162277;23;20899;-83
2023/04/21 09:04:54;;;;;;;7.23;6.43;;;;;;;11.70;71.48;95093.50;6136748;23;20151;-84
2023/04/21 09:07:42;;;;;;;7.03;6.13;;;;;;;11.85;71.02;95100.50;6136202;23;20490;-86
2023/04/21 09:10:08;;;;;;;7.90;7.07;;;;;;;11.84;68.76;95098.06;6138760;23;20143;-86
2023/04/21 09:12:34;;;;;;;9.27;6.40;;;;;;;11.85;70.17;95102.28;6160348;23;20150;-84
2023/04/21 09:15:12;;;;;;;8.00;6.27;;;;;;;11.83;71.79;95102.41;6129258;23;20167;-84
2023/04/21 09:17:37;;;;;;;8.73;6.87;;;;;;;11.96;70.90;95094.13;6125634;23;20624;-83
2023/04/21 09:20:27;;;;;;;7.07;6.10;;;;;;;12.16;67.48;95100.56;6101082;23;20299;-84
2023/04/21 09:22:54;;;;;;;8.80;7.17;;;;;;;12.23;67.92;95095.50;6129691;23;20227;-85
2023/04/21 09:25:22;;;;;;;7.73;5.90;;;;;;;12.32;69.25;95098.88;6129741;23;20160;-85
2023/04/21 09:27:47;;;;;;;6.73;5.47;;;;;;;12.28;67.38;95097.56;6127368;23;20735;-83
2023/04/21 09:30:22;;;;;;;7.77;5.83;;;;;;;12.46;68.33;95090.38;6104189;23;20159;-83
2023/04/21 09:32:48;;;;;;;9.40;5.37;;;;;;;12.67;67.95;95095.78;6105841;23;20158;-84
2023/04/21 09:35:19;;;;;;;7.87;7.07;;;;;;;12.54;67.79;95090.28;6128113;23;20310;-84
2023/04/21 09:37:55;;;;;;;6.73;5.50;;;;;;;12.81;68.03;95088.19;6127359;23;20496;-85
2023/04/21 09:40:29;;;;;;;7.97;6.50;;;;;;;13.03;67.90;95098.66;6128066;23;20186;-85
2023/04/21 09:42:55;;;;;;;7.93;6.63;;;;;;;13.23;66.12;95098.22;6125154;23;20184;-83
2023/04/21 09:45:26;;;;;;;7.73;6.53;;;;;;;13.22;64.62;95093.97;6134225;23;20560;-86
2023/04/21 09:48:00;;;;;;;8.40;7.50;;;;;;;13.15;64.50;95099.03;6179492;23;20175;-84
2023/04/21 09:50:29;;;;;;;9.33;6.83;;;;;;;12.92;66.47;95095.63;6186412;23;20254;-83
2023/04/21 09:53:01;;;;;;;8.67;6.37;;;;;;;12.97;65.87;95094.13;6181245;23;20601;-83
2023/04/21 09:55:29;;;;;;;8.57;7.03;;;;;;;12.90;65.65;95108.03;6159524;23;20162;-84
2023/04/21 09:58:04;;;;;;;7.37;6.50;;;;;;;13.11;65.37;95097.78;6155057;23;20240;-86
2023/04/21 10:00:41;;;;;;;8.00;6.10;;;;;;;13.19;64.49;95096.91;6159214;23;20488;-85
2023/04/21 10:03:36;;;;;;;6.07;5.30;;;;;;;13.10;64.43;95093.56;6157943;23;20186;-86
2023/04/21 10:06:25;;;;;;;6.87;6.17;;;;;;;13.12;63.15;95091.59;6161648;23;20289;-83
2023/04/21 10:09:14;;;;;;;7.67;5.63;;;;;;;13.04;63.22;95081.22;6162700;23;20186;-84
2023/04/21 10:11:42;;;;;;;7.90;5.67;;;;;;;12.92;62.91;95080.81;6173970;23;20162;-82
2023/04/21 10:17:24;;;;;;;7.93;5.90;;;;;;;13.17;63.82;95075.44;6184916;23;20221;-84
2023/04/21 10:19:57;;;;;;;7.63;5.90;;;;;;;13.09;63.33;95067.66;6156948;23;20166;-85
2023/04/21 10:22:33;;;;;;;7.30;6.37;;;;;;;13.55;64.33;95076.28;6209429;23;20196;-85
2023/04/21 10:25:00;;;;;;;10.10;6.50;;;;;;;13.64;63.32;95066.56;6184106;23;20222;-85
2023/04/21 10:27:35;;;;;;;7.77;6.97;;;;;;;13.69;61.80;95062.41;6160715;23;20182;-87
2023/04/21 10:30:00;;;;;;;8.77;6.53;;;;;;;13.77;63.83;95061.53;6209734;23;20194;-82
2023/04/21 10:32:42;;;;;;;8.30;6.50;;;;;;;13.95;62.75;95066.41;6161954;23;20177;-84
2023/04/21 10:35:12;;;;;;;6.83;6.13;;;;;;;14.11;62.89;95067.03;6211164;23;20213;-85
2023/04/21 10:37:39;;;;;;;7.33;6.63;;;;;;;14.00;60.36;95069.28;6184320;23;20244;-86
2023/04/21 10:40:10;;;;;;;9.33;6.63;;;;;;;14.02;63.04;95062.09;6186095;23;20229;-82
2023/04/21 10:42:36;;;;;;;7.17;6.03;;;;;;;14.23;62.39;95067.41;6187748;23;20166;-87
2023/04/21 10:45:07;;;;;;;6.70;6.00;;;;;;;14.52;62.41;95063.16;6160799;23;20248;-86
2023/04/21 10:47:36;;;;;;;6.70;5.97;;;;;;;14.58;60.77;95067.66;6188246;23;20186;-87
2023/04/21 10:50:11;;;;;;;6.70;6.00;;;;;;;14.51;60.87;95061.53;6163681;23;20167;-85
2023/04/21 10:52:37;;;;;;;7.80;6.33;;;;;;;14.00;61.29;95058.84;6163561;23;20231;-83
2023/04/21 10:55:11;;;;;;;6.57;5.97;;;;;;;14.43;62.20;95054.59;6161775;23;20605;-84
2023/04/21 10:57:37;;;;;;;10.47;6.73;;;;;;;14.53;60.92;95062.16;6188329;23;20184;-84
2023/04/21 11:00:07;;;;;;;9.20;6.50;;;;;;;14.65;62.00;95058.06;6187761;23;20612;-83
2023/04/21 11:03:10;;;;;;;7.80;6.70;;;;;;;14.95;62.95;95046.53;6186930;23;20748;-81
2023/04/21 11:06:37;;;;;;;;;;;;;;;;;;;;;
2023/04/21 11:39:25;;;;;;;6.57;5.73;;;;;;;15.56;56.87;95030.34;6159807;23;20237;-86
2023/04/21 11:41:51;;;;;;;6.83;5.97;;;;;;;15.53;57.09;95028.91;6184918;23;20182;-85
2023/04/21 11:44:46;;;;;;;7.07;5.27;;;;;;;15.75;56.94;95034.94;6186034;23;20219;-84
2023/04/21 11:47:12;;;;;;;8.03;6.20;;;;;;;15.69;55.62;95034.88;6070228;23;20669;-84
2023/04/21 11:49:46;;;;;;;6.90;6.20;;;;;;;15.64;55.59;95022.38;6071234;23;20199;-84
2023/04/21 11:52:21;;;;;;;6.90;5.93;;;;;;;15.88;56.84;95031.56;6095413;23;20515;-86
2023/04/21 11:54:47;;;;;;;6.47;5.77;;;;;;;15.97;55.80;95027.78;6098495;23;20164;-84
2023/04/21 11:57:30;;;;;;;5.63;5.03;;;;;;;16.13;54.90;95024.88;6095105;23;20188;-79
2023/04/21 12:07:12;;;;;;;5.93;5.33;;;;;;;16.91;53.92;95025.34;6039249;23;20542;-86
2023/04/21 12:10:10;;;;;;;6.78;5.85;;;;;;;16.92;52.77;95026.97;6017159;23;20173;-85
2023/04/21 12:13:14;;;;;;;8.35;6.78;;;;;;;16.93;51.94;95023.34;6041410;23;20158;-84
2023/04/21 12:16:01;;;;;;;7.85;7.03;;;;;;;16.88;51.55;95014.47;6034165;23;20162;-84
2023/04/21 12:18:48;;;;;;;9.40;7.97;;;;;;;16.74;53.28;95012.81;5996309;23;20769;-83
2023/04/21 12:21:19;;;;;;;8.07;7.20;;;;;;;16.67;51.90;95016.19;5995097;23;20162;-85
2023/04/21 12:24:28;;;;;;;7.25;6.55;;;;;;;16.99;52.89;95013.88;6043197;23;20183;-85
2023/04/21 12:33:03;;;;;;;8.10;7.32;;;;;;;16.61;54.04;95011.75;6023921;23;20183;-86
2023/04/21 12:35:46;;;;;;;8.98;7.57;;;;;;;16.70;52.17;95013.22;6017835;23;20275;-86
2023/04/21 12:38:22;;;;;;;9.80;8.38;;;;;;;16.55;54.11;95012.53;6015963;23;20250;-83
2023/04/21 12:40:57;;;;;;;9.68;7.60;;;;;;;16.35;53.36;95014.28;6103114;23;20177;-84
2023/04/21 12:43:58;;;;;;;;;;;;;;;;;;;;;
2023/04/21 12:50:39;;;;;;;7.85;6.80;;;;;;;16.59;55.25;95002.44;6097535;23;20170;-85
2023/04/21 12:57:51;;;;;;;;;;;;;;;;;;;;;
2023/04/21 13:00:25;;;;;;;7.78;6.88;;;;;;;17.53;50.90;94999.75;6119451;23;20164;-84
2023/04/21 13:02:56;;;;;;;8.68;7.00;;;;;;;17.54;51.58;95001.34;6109993;23;20189;-78
2023/04/21 13:05:36;;;;;;;7.43;6.68;;;;;;;17.28;51.93;95000.34;6161956;23;20663;-86
2023/04/21 13:08:04;;;;;;;10.05;6.00;;;;;;;17.40;51.25;94995.28;6187012;23;20646;-85
2023/04/21 13:10:49;;;;;;;7.18;6.35;;;;;;;17.98;50.83;95000.69;6160646;23;20624;-85
2023/04/21 13:17:05;;;;;;;6.18;5.57;;;;;;;18.31;49.56;95000.59;6094670;23;20196;-85
2023/04/21 13:20:09;;;;;;;6.25;5.65;;;;;;;18.00;49.60;94998.66;6037898;23;20222;-85
2023/04/21 13:23:05;;;;;;;;;;;;;;;;;;;;;
2023/04/21 13:25:51;;;;;;;6.32;5.72;;;;;;;17.28;49.30;94994.31;6016623;23;20308;-86
2023/04/21 13:28:58;;;;;;;6.00;5.40;;;;;;;17.81;49.59;94989.81;5992501;23;20198;-85
2023/04/21 13:35:21;;;;;;;6.38;5.03;;;;;;;18.48;47.94;94985.16;6019742;23;20611;-86
2023/04/21 13:38:19;;;;;;;5.65;5.15;;;;;;;18.27;48.92;94985.44;5956461;24;20270;-86
2023/04/21 13:54:19;;;;;;;6.00;4.63;;;;;;;18.45;48.00;94974.22;6147981;23;20241;-82
2023/04/21 13:56:44;;;;;;;5.68;4.50;;;;;;;18.45;48.08;94961.88;6187105;23;20162;-85
2023/04/21 13:59:10;;;;;;;7.30;5.82;;;;;;;18.26;47.15;94963.59;6189045;23;20237;-84
2023/04/21 14:01:36;;;;;;;7.95;5.43;;;;;;;18.19;47.25;94962.00;6164710;23;20473;-82
2023/04/21 14:04:01;;;;;;;5.88;5.38;;;;;;;18.07;47.17;94957.41;6189352;23;20492;-83
2023/04/21 14:06:27;;;;;;;4.75;4.32;;;;;;;18.15;46.83;94959.00;6162822;23;20155;-83
2023/04/21 14:08:54;;;;;;;5.60;5.07;;;;;;;17.84;48.24;94951.81;6166788;23;20171;-83
2023/04/21 14:11:20;;;;;;;5.95;5.30;;;;;;;18.21;48.28;94947.66;6164154;23;20154;-84
2023/04/21 14:13:45;;;;;;;6.80;5.40;;;;;;;18.13;46.95;94944.47;6164560;23;20202;-84
2023/04/21 14:16:11;;;;;;;5.93;5.28;;;;;;;18.10;47.08;94943.84;6163780;23;20772;-82
2023/04/21 14:18:39;;;;;;;5.18;4.68;;;;;;;18.66;46.32;94937.94;6187784;23;20198;-82
2023/04/21 14:21:04;;;;;;;5.93;4.55;;;;;;;18.66;46.72;94932.69;6173480;23;20210;-83
2023/04/21 14:23:30;;;;;;;6.97;6.07;;;;;;;18.65;45.74;94930.28;6212261;23;20162;-82
2023/04/21 14:25:55;;;;;;;5.55;4.70;;;;;;;18.30;46.49;94925.38;6185591;23;20170;-83
2023/04/21 14:28:21;;;;;;;4.47;4.07;;;;;;;18.49;46.67;94912.34;6175901;23;20182;-82
2023/04/21 14:30:48;;;;;;;4.45;4.05;;;;;;;18.37;45.28;94917.44;6179009;23;20186;-82
2023/04/21 14:33:13;;;;;;;4.95;4.45;;;;;;;18.34;46.39;94913.41;6186029;23;20169;-82
2023/04/21 14:35:38;;;;;;;4.38;3.97;;;;;;;18.26;45.36;94910.22;6170912;23;20155;-81
2023/04/21 14:38:04;;;;;;;7.68;6.35;;;;;;;18.76;45.84;94913.00;6185795;23;20182;-83
2023/04/21 14:40:29;;;;;;;5.72;4.32;;;;;;;18.64;45.88;94905.78;6160428;23;20162;-84
2023/04/21 14:42:54;;;;;;;4.00;3.60;;;;;;;18.70;45.06;94911.22;6161367;23;20191;-83
2023/04/21 14:45:20;;;;;;;4.13;3.72;;;;;;;18.32;44.92;94920.72;6188589;23;20489;-84
2023/04/21 14:47:46;;;;;;;3.70;3.40;;;;;;;18.10;46.64;94922.84;6159706;23;20178;-82
2023/04/21 14:50:11;;;;;;;4.72;3.80;;;;;;;18.06;46.27;94918.22;6157909;23;20970;-84
2023/04/21 14:52:37;;;;;;;4.28;3.88;;;;;;;17.77;47.71;94925.63;6186440;23;20151;-83
2023/04/21 14:55:03;;;;;;;4.90;3.80;;;;;;;17.70;47.47;94919.56;6158402;23;20167;-82
2023/04/21 14:57:28;;;;;;;3.95;3.47;;;;;;;17.97;47.84;94919.47;6157882;23;20182;-81
2023/04/21 14:59:54;;;;;;;3.85;3.55;;;;;;;18.00;47.06;94919.84;6159310;23;20150;-83
2023/04/21 15:02:19;;;;;;;4.10;3.70;;;;;;;17.82;47.32;94925.78;6161019;23;20185;-83
2023/04/21 15:04:45;;;;;;;5.15;3.78;;;;;;;17.67;47.48;94930.47;6185450;23;20221;-83
2023/04/21 15:07:10;;;;;;;4.00;3.63;;;;;;;17.55;46.91;94922.38;6159468;23;20179;-85
2023/04/21 15:09:36;;;;;;;3.65;3.25;;;;;;;17.26;47.61;94918.41;6160282;23;20154;-85
2023/04/21 15:12:01;;;;;;;4.22;3.10;;;;;;;17.12;47.63;94910.75;6184006;23;20592;-82
2023/04/21 15:14:27;;;;;;;4.38;3.50;;;;;;;17.13;48.52;94917.59;6159947;23;20623;-82
2023/04/21 15:16:52;;;;;;;3.33;2.92;;;;;;;16.98;48.73;94920.47;6178201;23;20512;-83
2023/04/21 15:19:17;;;;;;;3.90;3.15;;;;;;;16.84;48.43;94919.63;6157031;23;20201;-83
2023/04/21 15:21:43;;;;;;;3.40;3.08;;;;;;;16.91;48.47;94915.22;6158895;23;20232;-82
2023/04/21 15:24:09;;;;;;;3.65;2.78;;;;;;;16.92;48.00;94908.16;6181646;23;20182;-82
2023/04/21 15:26:34;;;;;;;3.40;3.10;;;;;;;16.89;48.23;94909.38;6154669;23;20162;-84
2023/04/21 15:28:59;;;;;;;3.70;3.30;;;;;;;16.93;48.17;94901.88;6153700;23;20178;-84
2023/04/21 15:31:25;;;;;;;3.58;3.00;;;;;;;16.89;48.14;94903.31;6179912;23;20155;-83
2023/04/21 15:33:50;;;;;;;4.28;3.88;;;;;;;16.92;48.39;94901.09;6178138;23;20679;-85
2023/04/21 15:36:15;;;;;;;3.45;3.15;;;;;;;16.86;48.82;94898.44;6180723;23;20233;-87
2023/04/21 15:38:44;;;;;;;3.25;2.90;;;;;;;16.75;49.42;94915.59;6185775;23;21002;-87
2023/04/21 15:41:09;;;;;;;3.38;3.08;;;;;;;16.54;50.41;94908.72;6182215;23;20616;-85
2023/04/21 15:43:34;;;;;;;4.70;3.45;;;;;;;16.46;50.78;94918.56;6184677;23;20202;-84
2023/04/21 15:46:00;;;;;;;5.07;3.38;;;;;;;16.63;50.49;94912.75;6158737;23;20162;-83
2023/04/21 15:48:25;;;;;;;4.85;3.15;;;;;;;16.58;51.36;94909.91;6158770;23;20178;-83
2023/04/21 15:50:51;;;;;;;3.45;3.10;;;;;;;16.57;51.60;94913.53;6158188;23;20155;-83
2023/04/21 15:53:16;;;;;;;3.40;3.10;;;;;;;16.49;53.23;94918.16;6183733;23;20157;-84
2023/04/21 15:55:43;;;;;;;3.30;3.00;;;;;;;16.56;53.46;94906.69;6183882;23;20158;-85
2023/04/21 15:58:22;;;;;;;3.55;3.25;;;;;;;16.47;53.01;94907.88;6163681;23;20288;-83
2023/04/21 18:48:33;;;;;;;5.83;3.40;;;;;;;11.11;93.78;94942.16;6182111;23;20229;-85
2023/04/21 18:51:23;;;;;;;3.83;3.53;;;;;;;11.05;93.95;94947.06;6157417;23;20475;-84
2023/04/21 18:53:59;;;;;;;5.03;3.90;;;;;;;11.05;93.52;94960.03;6181878;23;20154;-84
2023/04/21 18:57:00;;;;;;;;;;;;;;;;;;;;;
2023/04/21 18:59:29;;;;;;;4.70;4.17;;;;;;;11.02;93.58;94959.53;6158671;23;20236;-84
2023/04/21 19:02:20;;;;;;;7.50;4.60;;;;;;;11.01;94.04;94953.53;6093187;23;20159;-84
2023/04/21 19:04:54;;;;;;;5.50;5.00;;;;;;;11.01;94.50;94961.34;6157495;23;20198;-84
2023/04/21 19:07:44;;;;;;;5.90;5.23;;;;;;;11.00;95.00;94967.50;6151940;23;20699;-84
2023/04/21 19:10:36;;;;;;;6.67;4.87;;;;;;;10.98;94.77;94969.47;6049657;23;20187;-84
2023/04/21 19:15:56;;;;;;;4.60;4.20;;;;;;;10.88;96.00;94958.44;6115410;23;20213;-84
2023/04/21 19:18:31;;;;;;;5.97;4.30;;;;;;;10.86;95.59;94968.16;6102961;23;20194;-84
2023/04/21 19:21:04;;;;;;;15.07;13.20;;;;;;;10.94;96.03;94968.16;6102963;23;20151;-84
2023/04/21 21:44:20;;;;;;;4.87;4.20;;;;;;;10.69;93.54;95000.28;6153929;23;20529;-83
2023/04/21 21:46:45;;;;;;;5.13;4.70;;;;;;;10.72;92.99;95002.59;6151491;23;20217;-83
2023/04/21 21:49:10;;;;;;;5.43;4.87;;;;;;;10.70;92.03;95001.94;6152343;23;20670;-83
2023/04/21 21:51:42;;;;;;;5.27;4.70;;;;;;;10.74;91.41;95004.03;6128313;23;20159;-84
